createdAt,value
2023-01-19T00:02:04.000Z,99210.61
2023-01-19T00:04:56.853Z,99222.27
2023-01-19T00:07:49.754Z,99229.25
2023-01-19T00:10:42.365Z,99228.73
2023-01-19T00:13:35.616Z,99233.33
2023-01-19T00:16:28.687Z,99240.34
2023-01-19T00:19:13.845Z,99242.15
2023-01-19T00:22:07.534Z,99237.97
2023-01-19T00:25:00.162Z,99238.91
2023-01-19T00:27:52.605Z,99243.09
2023-01-19T00:30:46.812Z,99247.27
2023-01-19T00:33:39.409Z,99251.05
2023-01-19T00:36:34.214Z,99261.64
2023-01-19T00:39:27.335Z,99264.05
2023-01-19T00:42:37.856Z,99271.56
2023-01-19T00:45:31.829Z,99277.09
2023-01-19T00:48:24.673Z,99272.55
2023-01-19T00:51:10.062Z,99276.09
2023-01-19T00:54:10.405Z,99274.89
2023-01-19T00:57:03.751Z,99276.72
2023-01-19T00:59:56.850Z,99274.02
2023-01-19T01:02:51.204Z,99273.23
2023-01-19T01:05:45.064Z,99275.30
2023-01-19T01:08:38.080Z,99279.58
2023-01-19T01:11:31.287Z,99276.01
2023-01-19T01:14:24.515Z,99273.23
2023-01-19T01:17:18.077Z,99268.13
2023-01-19T01:20:16.587Z,99267.67
2023-01-19T01:23:09.673Z,99257.86
2023-01-19T01:26:02.625Z,99255.77
2023-01-19T01:28:54.955Z,99254.17
2023-01-19T01:31:47.458Z,99251.50
2023-01-19T01:34:40.098Z,99247.80
2023-01-19T01:37:32.913Z,99238.70
2023-01-19T01:40:25.360Z,99230.61
2023-01-19T01:43:20.772Z,99234.13
2023-01-19T01:46:15.790Z,99235.95
2023-01-19T01:49:12.948Z,99236.33
2023-01-19T01:52:05.970Z,99235.44
2023-01-19T01:55:01.087Z,99233.79
2023-01-19T01:57:58.533Z,99233.44
2023-01-19T02:01:08.903Z,99237.08
2023-01-19T02:04:03.757Z,99234.15
2023-01-19T02:07:13.908Z,99233.48
2023-01-19T02:10:24.902Z,99239.32
2023-01-19T02:13:21.699Z,99245.48
2023-01-19T02:16:16.191Z,99253.02
2023-01-19T02:19:13.910Z,99251.40
2023-01-19T02:22:13.011Z,99250.14
2023-01-19T02:25:06.678Z,99247.81
2023-01-19T02:28:01.908Z,99246.35
2023-01-19T02:30:54.755Z,99246.13
2023-01-19T02:33:47.424Z,99247.25
2023-01-19T02:36:45.769Z,99253.67
2023-01-19T02:39:45.325Z,99258.95
2023-01-19T02:42:41.109Z,99253.85
2023-01-19T02:45:35.332Z,99254.35
2023-01-19T02:48:27.822Z,99249.81
2023-01-19T02:51:22.640Z,99250.49
2023-01-19T02:54:29.366Z,99247.98
2023-01-19T02:57:36.339Z,99243.34
2023-01-19T03:00:38.990Z,99244.58
2023-01-19T03:03:41.613Z,99244.80
2023-01-19T03:06:44.873Z,99242.23
2023-01-19T03:09:44.813Z,99240.70
2023-01-19T03:12:46.626Z,99234.56
2023-01-19T03:15:47.016Z,99234.34
2023-01-19T03:18:39.294Z,99233.61
2023-01-19T03:21:36.877Z,99242.52
2023-01-19T03:24:26.406Z,99250.24
2023-01-19T03:27:27.187Z,99252.11
2023-01-19T03:30:25.718Z,99261.24
2023-01-19T03:33:26.454Z,99264.96
2023-01-19T03:36:25.659Z,99265.23
2023-01-19T03:39:26.348Z,99265.80
2023-01-19T03:42:20.758Z,99267.15
2023-01-19T03:45:16.060Z,99275.91
2023-01-19T03:48:09.458Z,99280.77
2023-01-19T03:51:07.711Z,99280.33
2023-01-19T03:54:01.610Z,99283.42
2023-01-19T03:56:54.151Z,99288.98
2023-01-19T03:59:50.003Z,99291.23
2023-01-19T04:02:43.109Z,99292.31
2023-01-19T04:05:38.068Z,99293.48
2023-01-19T04:08:31.551Z,99297.55
2023-01-19T04:11:23.947Z,99301.29
2023-01-19T04:14:18.040Z,99306.80
2023-01-19T04:17:03.615Z,99309.78
2023-01-19T04:19:56.073Z,99313.09
2023-01-19T04:22:49.216Z,99313.44
2023-01-19T04:25:41.829Z,99316.90
2023-01-19T04:28:37.238Z,99318.44
2023-01-19T04:31:33.159Z,99325.05
2023-01-19T04:34:25.504Z,99329.48
2023-01-19T04:37:08.580Z,99329.59
2023-01-19T04:40:01.354Z,99332.57
2023-01-19T04:42:54.541Z,99332.08
2023-01-19T04:45:46.707Z,99336.18
2023-01-19T04:48:48.913Z,99337.95
2023-01-19T04:51:42.061Z,99344.52
2023-01-19T04:54:34.985Z,99353.92
2023-01-19T04:57:28.478Z,99359.68
2023-01-19T05:00:24.640Z,99354.39
2023-01-19T05:03:17.156Z,99356.42
2023-01-19T05:06:11.438Z,99359.02
2023-01-19T05:09:05.650Z,99356.76
2023-01-19T05:11:58.169Z,99359.30
2023-01-19T05:14:55.229Z,99372.56
2023-01-19T05:17:50.966Z,99376.52
2023-01-19T05:20:36.119Z,99371.50
2023-01-19T05:23:28.563Z,99365.57
2023-01-19T05:26:21.253Z,99357.42
2023-01-19T05:29:13.879Z,99360.81
2023-01-19T05:32:08.166Z,99363.14
2023-01-19T05:34:53.732Z,99368.27
2023-01-19T05:37:47.508Z,99378.81
2023-01-19T05:40:41.069Z,99388.86
2023-01-19T05:43:33.853Z,99388.77
2023-01-19T05:46:28.373Z,99386.06
2023-01-19T05:49:22.808Z,99381.87
2023-01-19T05:52:08.492Z,99382.04
2023-01-19T05:55:04.980Z,99378.94
2023-01-19T05:57:58.706Z,99382.63
2023-01-19T06:00:52.004Z,99392.34
2023-01-19T06:03:45.550Z,99397.30
2023-01-19T06:06:38.445Z,99405.19
2023-01-19T06:09:34.392Z,99406.30
2023-01-19T06:12:28.790Z,99401.62
2023-01-19T06:15:22.964Z,99408.17
2023-01-19T06:18:16.147Z,99416.70
2023-01-19T06:21:12.808Z,99434.20
2023-01-19T06:24:11.693Z,99440.95
2023-01-19T06:26:58.728Z,99454.22
2023-01-19T06:29:52.669Z,99461.34
2023-01-19T06:32:47.823Z,99462.03
2023-01-19T06:35:44.134Z,99464.98
2023-01-19T06:38:36.753Z,99467.77
2023-01-19T06:41:30.676Z,99469.11
2023-01-19T06:44:23.693Z,99480.86
2023-01-19T06:47:22.715Z,99481.55
2023-01-19T06:50:15.684Z,99486.20
2023-01-19T06:53:08.377Z,99493.91
2023-01-19T06:56:04.471Z,99494.13
2023-01-19T06:58:58.118Z,99490.03
2023-01-19T07:01:50.961Z,99487.98
2023-01-19T07:04:43.722Z,99482.48
2023-01-19T07:07:36.339Z,99476.83
2023-01-19T07:10:28.959Z,99473.02
2023-01-19T07:13:33.448Z,99464.64
2023-01-19T07:16:26.952Z,99463.38
2023-01-19T07:19:14.409Z,99464.66
2023-01-19T07:22:06.861Z,99469.76
2023-01-19T07:25:02.646Z,99472.53
2023-01-19T07:27:57.699Z,99470.78
2023-01-19T07:30:54.375Z,99468.23
2023-01-19T07:33:47.543Z,99470.39
2023-01-19T07:36:40.050Z,99466.66
2023-01-19T07:39:32.798Z,99467.87
2023-01-19T07:42:25.617Z,99468.77
2023-01-19T07:45:18.456Z,99473.27
2023-01-19T07:48:11.255Z,99480.59
2023-01-19T07:51:11.114Z,99487.42
2023-01-19T07:54:08.772Z,99496.19
2023-01-19T07:57:02.820Z,99498.85
2023-01-19T07:59:55.638Z,99511.64
2023-01-19T08:02:50.158Z,99518.98
2023-01-19T08:05:42.961Z,99518.66
2023-01-19T08:08:36.066Z,99515.93
2023-01-19T08:11:29.161Z,99511.14
2023-01-19T08:14:21.473Z,99510.48
2023-01-19T08:17:16.938Z,99499.98
2023-01-19T08:20:11.337Z,99493.29
2023-01-19T08:23:00.805Z,99494.46
2023-01-19T08:25:53.473Z,99491.28
2023-01-19T08:28:47.128Z,99492.16
2023-01-19T08:31:42.743Z,99485.88
2023-01-19T08:34:37.184Z,99480.73
2023-01-19T08:37:29.612Z,99481.09
2023-01-19T08:40:22.585Z,99489.88
2023-01-19T08:43:16.978Z,99489.16
2023-01-19T08:46:09.714Z,99484.80
2023-01-19T08:49:04.260Z,99489.17
2023-01-19T08:51:56.650Z,99493.71
2023-01-19T08:54:49.722Z,99496.20
2023-01-19T08:57:42.411Z,99499.75
2023-01-19T09:00:38.100Z,99505.85
2023-01-19T09:03:31.448Z,99517.34
2023-01-19T09:06:25.420Z,99519.45
2023-01-19T09:09:18.037Z,99518.02
2023-01-19T09:12:10.483Z,99511.69
2023-01-19T09:15:05.213Z,99516.08
2023-01-19T09:17:57.597Z,99521.83
2023-01-19T09:20:51.750Z,99518.20
2023-01-19T09:23:37.729Z,99518.73
2023-01-19T09:26:33.148Z,99522.23
2023-01-19T09:29:25.908Z,99533.56
2023-01-19T09:32:22.129Z,99541.20
2023-01-19T09:35:14.946Z,99540.34
2023-01-19T09:38:09.594Z,99534.66
2023-01-19T09:41:07.308Z,99538.61
2023-01-19T09:44:09.602Z,99540.02
2023-01-19T09:47:05.901Z,99536.65
2023-01-19T09:50:03.118Z,99530.65
2023-01-19T09:53:02.490Z,99522.58
2023-01-19T09:55:54.681Z,99515.80
2023-01-19T09:58:47.958Z,99513.06
2023-01-19T10:01:55.083Z,99514.09
2023-01-19T10:05:03.219Z,99514.55
2023-01-19T10:08:10.346Z,99514.14
2023-01-19T10:11:03.153Z,99514.33
2023-01-19T10:13:56.479Z,99507.40
2023-01-19T10:16:58.640Z,99506.18
2023-01-19T10:19:55.483Z,99508.61
2023-01-19T10:22:43.451Z,99507.33
2023-01-19T10:25:36.206Z,99502.31
2023-01-19T10:28:29.524Z,99495.56
2023-01-19T10:31:25.903Z,99495.26
2023-01-19T10:34:23.079Z,99500.55
2023-01-19T10:37:26.638Z,99490.39
2023-01-19T10:40:28.519Z,99482.71
2023-01-19T10:43:42.747Z,99480.31
2023-01-19T10:46:46.077Z,99474.39
2023-01-19T10:49:43.225Z,99478.88
2023-01-19T10:52:39.871Z,99479.94
2023-01-19T10:55:35.519Z,99487.67
2023-01-19T10:58:36.373Z,99498.09
2023-01-19T11:01:37.803Z,99496.50
2023-01-19T11:04:32.980Z,99490.68
2023-01-19T11:07:30.443Z,99493.20
2023-01-19T11:10:27.520Z,99495.35
2023-01-19T11:13:19.914Z,99497.65
2023-01-19T11:16:25.840Z,99496.31
2023-01-19T11:19:25.742Z,99491.90
2023-01-19T11:22:27.501Z,99494.40
2023-01-19T11:25:34.193Z,99487.63
2023-01-19T11:28:31.380Z,99486.77
2023-01-19T11:31:36.354Z,99484.00
2023-01-19T11:34:34.505Z,99469.41
2023-01-19T11:37:34.583Z,99464.30
2023-01-19T11:40:27.032Z,99458.71
2023-01-19T11:43:20.317Z,99459.98
2023-01-19T11:46:14.672Z,99462.55
2023-01-19T11:49:16.635Z,99463.20
2023-01-19T11:52:14.747Z,99455.98
2023-01-19T11:55:17.683Z,99454.56
2023-01-19T11:58:24.408Z,99457.50
2023-01-19T12:01:25.031Z,99456.45
2023-01-19T12:04:23.093Z,99460.35
2023-01-19T12:07:21.168Z,99459.58
2023-01-19T12:10:06.542Z,99461.52
2023-01-19T12:13:02.645Z,99459.60
2023-01-19T12:15:59.320Z,99459.95
2023-01-19T12:18:57.398Z,99457.34
2023-01-19T12:21:50.263Z,99459.19
2023-01-19T12:24:48.665Z,99459.98
2023-01-19T12:27:43.729Z,99455.48
2023-01-19T12:30:31.440Z,99450.79
2023-01-19T12:33:40.747Z,99448.80
2023-01-19T12:36:40.358Z,99449.89
2023-01-19T12:39:36.086Z,99448.27
2023-01-19T12:42:29.845Z,99445.22
2023-01-19T12:45:26.361Z,99444.83
2023-01-19T12:48:29.296Z,99439.85
2023-01-19T12:51:31.045Z,99440.61
2023-01-19T12:54:31.714Z,99447.06
2023-01-19T12:57:40.563Z,99448.63
2023-01-19T13:00:40.055Z,99443.21
2023-01-19T13:04:07.000Z,99437.58
2023-01-19T13:07:20.174Z,99440.29
2023-01-19T13:10:55.101Z,99434.36
2023-01-19T13:13:36.583Z,99431.20
2023-01-19T13:16:58.945Z,99434.61
2023-01-19T13:20:00.984Z,99438.11
2023-01-19T13:23:23.215Z,99435.57
2023-01-19T13:26:17.748Z,99433.22
2023-01-19T13:29:15.949Z,99432.18
2023-01-19T13:32:27.419Z,99428.89
2023-01-19T13:35:22.241Z,99428.77
2023-01-19T13:38:17.619Z,99430.20
2023-01-19T13:41:10.117Z,99434.10
2023-01-19T13:44:21.531Z,99439.89
2023-01-19T13:47:26.296Z,99446.98
2023-01-19T13:50:25.532Z,99451.95
2023-01-19T13:53:24.538Z,99460.36
2023-01-19T13:56:25.962Z,99468.34
2023-01-19T13:59:18.284Z,99470.85
2023-01-19T14:02:16.414Z,99467.96
2023-01-19T14:05:22.978Z,99466.35
2023-01-19T14:08:18.341Z,99463.06
2023-01-19T14:11:16.531Z,99467.42
2023-01-19T14:14:25.305Z,99462.74
2023-01-19T14:17:30.032Z,99462.34
2023-01-19T14:20:36.978Z,99454.42
2023-01-19T14:23:57.373Z,99450.19
2023-01-19T14:26:52.126Z,99456.06
2023-01-19T14:29:53.896Z,99457.23
2023-01-19T14:32:49.991Z,99454.29
2023-01-19T14:35:43.738Z,99456.44
2023-01-19T14:38:29.221Z,99458.12
2023-01-19T14:41:28.328Z,99462.95
2023-01-19T14:44:27.619Z,99457.94
2023-01-19T14:47:34.848Z,99454.52
2023-01-19T14:50:29.080Z,99457.04
2023-01-19T14:53:26.168Z,99460.01
2023-01-19T14:56:27.872Z,99454.42
2023-01-19T14:59:20.544Z,99462.44
2023-01-19T15:03:07.660Z,99474.86
2023-01-19T15:05:33.870Z,99492.04
2023-01-19T15:08:31.487Z,99499.39
2023-01-19T15:11:21.479Z,99495.20
2023-01-19T15:14:14.619Z,99494.82
2023-01-19T15:17:11.759Z,99492.51
2023-01-19T15:20:13.303Z,99485.04
2023-01-19T15:23:08.538Z,99484.89
2023-01-19T15:26:05.164Z,99489.88
2023-01-19T15:28:58.557Z,99497.71
2023-01-19T15:31:52.176Z,99497.10
2023-01-19T15:34:45.831Z,99498.66
2023-01-19T15:37:38.707Z,99494.38
2023-01-19T15:40:32.831Z,99496.46
2023-01-19T15:43:25.323Z,99498.34
2023-01-19T15:46:23.436Z,99497.67
2023-01-19T15:49:21.132Z,99500.17
2023-01-19T15:52:20.475Z,99501.25
2023-01-19T15:55:15.989Z,99500.23
2023-01-19T15:58:02.907Z,99501.86
2023-01-19T16:01:00.828Z,99498.80
2023-01-19T16:03:53.449Z,99498.95
2023-01-19T16:06:39.591Z,99498.73
2023-01-19T16:09:32.533Z,99501.09
2023-01-19T16:12:30.619Z,99500.57
2023-01-19T16:15:25.498Z,99502.39
2023-01-19T16:18:18.201Z,99506.02
2023-01-19T16:21:10.918Z,99511.01
2023-01-19T16:24:04.869Z,99506.55
2023-01-19T16:27:01.344Z,99507.20
2023-01-19T16:29:54.718Z,99510.84
2023-01-19T16:32:50.382Z,99514.67
2023-01-19T16:35:45.425Z,99516.40
2023-01-19T16:38:37.761Z,99513.03
2023-01-19T16:41:37.694Z,99513.81
2023-01-19T16:44:31.583Z,99513.81
2023-01-19T16:47:25.956Z,99519.83
2023-01-19T16:50:20.753Z,99517.41
2023-01-19T16:53:13.499Z,99518.20
2023-01-19T16:56:02.227Z,99514.92
2023-01-19T16:58:57.995Z,99521.59
2023-01-19T17:01:52.278Z,99520.97
2023-01-19T17:04:47.335Z,99519.47
2023-01-19T17:07:39.744Z,99520.36
2023-01-19T17:10:32.742Z,99517.23
2023-01-19T17:13:25.381Z,99518.58
2023-01-19T17:16:05.488Z,99514.85
2023-01-19T17:19:02.536Z,99516.78
2023-01-19T17:21:55.309Z,99507.91
2023-01-19T17:24:50.754Z,99501.22
2023-01-19T17:27:43.660Z,99495.85
2023-01-19T17:30:36.315Z,99500.67
2023-01-19T17:33:33.118Z,99499.67
2023-01-19T17:36:28.201Z,99501.63
2023-01-19T17:39:20.705Z,99499.44
2023-01-19T17:42:13.891Z,99499.81
2023-01-19T17:45:07.274Z,99500.62
2023-01-19T17:48:03.417Z,99502.64
2023-01-19T17:50:56.491Z,99503.41
2023-01-19T17:53:51.683Z,99502.92
2023-01-19T17:56:45.866Z,99509.81
2023-01-19T17:59:41.047Z,99508.08
2023-01-19T18:02:36.286Z,99508.92
2023-01-19T18:05:28.314Z,99496.64
2023-01-19T18:08:21.167Z,99492.41
2023-01-19T18:11:13.867Z,99495.56
2023-01-19T18:14:10.042Z,99502.67
2023-01-19T18:17:03.155Z,99505.70
2023-01-19T18:19:56.342Z,99506.02
2023-01-19T18:22:51.166Z,99506.51
2023-01-19T18:25:45.354Z,99509.46
2023-01-19T18:28:37.961Z,99514.92
2023-01-19T18:31:54.435Z,99511.70
2023-01-19T18:34:48.788Z,99509.41
2023-01-19T18:37:41.919Z,99508.73
2023-01-19T18:40:37.527Z,99508.48
2023-01-19T18:43:30.328Z,99504.63
2023-01-19T18:46:23.356Z,99506.92
2023-01-19T18:49:16.088Z,99510.95
2023-01-19T18:52:01.942Z,99510.83
2023-01-19T18:54:55.176Z,99510.80
2023-01-19T18:57:47.889Z,99512.23
2023-01-19T19:00:39.626Z,99512.57
2023-01-19T19:03:34.016Z,99510.71
2023-01-19T19:06:30.488Z,99515.61
2023-01-19T19:09:22.829Z,99514.88
2023-01-19T19:12:30.492Z,99521.59
2023-01-19T19:15:27.377Z,99517.72
2023-01-19T19:18:21.350Z,99518.70
2023-01-19T19:21:15.569Z,99521.14
2023-01-19T19:24:11.465Z,99522.39
2023-01-19T19:27:06.533Z,99526.53
2023-01-19T19:29:59.226Z,99527.09
2023-01-19T19:32:57.121Z,99527.09
2023-01-19T19:35:49.784Z,99533.25
2023-01-19T19:38:44.622Z,99536.39
2023-01-19T19:41:51.293Z,99535.41
2023-01-19T19:44:44.505Z,99543.27
2023-01-19T19:47:39.705Z,99545.88
2023-01-19T19:50:35.711Z,99547.98
2023-01-19T19:53:28.279Z,99547.77
2023-01-19T19:56:23.218Z,99552.20
2023-01-19T19:59:22.418Z,99556.20
2023-01-19T20:02:27.086Z,99556.41
2023-01-19T20:05:25.773Z,99557.12
2023-01-19T20:08:22.365Z,99556.48
2023-01-19T20:11:22.101Z,99561.98
2023-01-19T20:14:22.669Z,99561.77
2023-01-19T20:17:27.779Z,99563.89
2023-01-19T20:20:25.377Z,99566.91
2023-01-19T20:23:19.452Z,99572.57
2023-01-19T20:26:13.842Z,99571.94
2023-01-19T20:29:17.220Z,99572.48
2023-01-19T20:32:00.712Z,99572.94
2023-01-19T20:34:53.979Z,99580.11
2023-01-19T20:37:49.054Z,99575.05
2023-01-19T20:40:42.003Z,99578.47
2023-01-19T20:43:35.526Z,99575.79
2023-01-19T20:47:31.724Z,99575.97
2023-01-19T20:49:42.573Z,99576.60
2023-01-19T20:52:35.852Z,99578.10
2023-01-19T20:55:28.534Z,99585.20
2023-01-19T20:58:21.857Z,99595.02
2023-01-19T21:01:19.315Z,99594.70
2023-01-19T21:04:12.681Z,99594.95
2023-01-19T21:07:05.246Z,99594.35
2023-01-19T21:09:58.096Z,99595.36
2023-01-19T21:12:55.727Z,99597.14
2023-01-19T21:15:55.046Z,99600.03
2023-01-19T21:18:55.647Z,99603.06
2023-01-19T21:21:57.866Z,99611.05
2023-01-19T21:24:56.145Z,99616.68
2023-01-19T21:27:58.429Z,99620.71
2023-01-19T21:30:54.703Z,99625.44
2023-01-19T21:33:49.251Z,99630.80
2023-01-19T21:36:41.787Z,99640.20
2023-01-19T21:39:32.907Z,99647.33
2023-01-19T21:42:29.681Z,99652.38
2023-01-19T21:45:43.969Z,99658.90
2023-01-19T21:48:36.460Z,99663.32
2023-01-19T21:51:30.349Z,99666.40
2023-01-19T21:54:28.455Z,99669.04
2023-01-19T21:57:29.552Z,99670.85
2023-01-19T22:00:26.322Z,99668.69
2023-01-19T22:03:27.594Z,99676.23
2023-01-19T22:07:09.762Z,99680.97
2023-01-19T22:09:37.796Z,99678.69
2023-01-19T22:12:30.391Z,99677.75
2023-01-19T22:15:43.921Z,99680.58
2023-01-19T22:18:36.583Z,99680.71
2023-01-19T22:21:31.057Z,99684.00
2023-01-19T22:24:27.486Z,99688.20
2023-01-19T22:27:33.273Z,99690.72
2023-01-19T22:30:30.481Z,99693.13
2023-01-19T22:33:31.899Z,99696.20
2023-01-19T22:36:34.580Z,99693.42
2023-01-19T22:39:31.416Z,99694.07
2023-01-19T22:42:18.318Z,99692.09
2023-01-19T22:45:13.054Z,99690.11
2023-01-19T22:48:10.665Z,99692.66
2023-01-19T22:51:04.170Z,99694.09
2023-01-19T22:53:56.592Z,99698.50
2023-01-19T22:56:49.311Z,99703.33
2023-01-19T22:59:47.400Z,99707.01
2023-01-19T23:02:40.282Z,99706.20
2023-01-19T23:05:36.864Z,99712.67
2023-01-19T23:08:30.011Z,99719.75
2023-01-19T23:11:24.284Z,99730.73
2023-01-19T23:14:19.407Z,99728.98
2023-01-19T23:17:12.946Z,99732.44
2023-01-19T23:20:07.973Z,99729.83
2023-01-19T23:23:00.639Z,99723.42
2023-01-19T23:25:53.116Z,99726.52
2023-01-19T23:28:46.244Z,99729.99
2023-01-19T23:31:44.430Z,99735.86
2023-01-19T23:34:36.797Z,99744.39
2023-01-19T23:37:29.378Z,99747.30
2023-01-19T23:40:21.980Z,99752.27
2023-01-19T23:43:14.863Z,99749.80
2023-01-19T23:46:09.416Z,99753.27
2023-01-19T23:49:03.959Z,99756.72
2023-01-19T23:51:56.325Z,99767.08
2023-01-19T23:54:51.950Z,99769.41
2023-01-19T23:57:46.155Z,99774.69
